createdAt,value
2018-08-04T00:00:30.864Z,57.40
2018-08-04T00:03:00.759Z,57.53
2018-08-04T00:05:30.656Z,58.06
2018-08-04T00:08:00.470Z,57.59
2018-08-04T00:10:30.204Z,58.36
2018-08-04T00:13:00.036Z,57.28
2018-08-04T00:15:29.881Z,57.29
2018-08-04T00:17:59.654Z,57.30
2018-08-04T00:20:29.528Z,57.04
2018-08-04T00:22:59.382Z,56.23
2018-08-04T00:25:29.336Z,54.98
2018-08-04T00:27:59.041Z,55.66
2018-08-04T00:30:28.938Z,55.21
2018-08-04T00:32:58.702Z,54.15
2018-08-04T00:35:28.676Z,53.04
2018-08-04T00:37:58.475Z,53.48
2018-08-04T00:40:28.151Z,52.66
2018-08-04T00:42:57.964Z,52.44
2018-08-04T00:45:27.722Z,53.43
2018-08-04T00:47:57.478Z,52.88
2018-08-04T00:50:27.337Z,53.83
2018-08-04T00:52:57.027Z,55.05
2018-08-04T00:55:26.920Z,56.25
2018-08-04T00:57:56.747Z,56.65
2018-08-04T01:00:26.438Z,54.91
2018-08-04T01:02:56.200Z,54.13
2018-08-04T01:05:56.867Z,54.49
2018-08-04T01:08:26.628Z,55.98
2018-08-04T01:10:56.576Z,54.67
2018-08-04T01:13:26.283Z,54.98
2018-08-04T01:15:55.966Z,53.42
2018-08-04T01:18:25.738Z,52.90
2018-08-04T01:20:55.301Z,53.99
2018-08-04T01:23:25.053Z,54.85
2018-08-04T01:25:54.834Z,53.63
2018-08-04T01:28:24.547Z,54.03
2018-08-04T01:30:54.266Z,54.16
2018-08-04T01:33:24.159Z,54.35
2018-08-04T01:35:53.906Z,57.61
2018-08-04T01:38:23.726Z,56.90
2018-08-04T01:40:53.429Z,55.92
2018-08-04T01:43:23.194Z,56.99
2018-08-04T01:45:52.952Z,54.87
2018-08-04T01:48:22.860Z,53.98
2018-08-04T01:50:52.612Z,53.24
2018-08-04T01:53:22.379Z,54.05
2018-08-04T01:55:52.210Z,54.07
2018-08-04T01:58:22.117Z,53.47
2018-08-04T02:00:51.958Z,53.40
2018-08-04T02:03:21.815Z,52.74
2018-08-04T02:05:51.693Z,53.43
2018-08-04T02:08:21.545Z,52.98
2018-08-04T02:10:51.293Z,52.77
2018-08-04T02:13:21.227Z,53.50
2018-08-04T02:15:50.959Z,52.55
2018-08-04T02:18:20.789Z,54.53
2018-08-04T02:20:50.482Z,55.26
2018-08-04T02:23:20.186Z,55.74
2018-08-04T02:25:50.007Z,56.40
2018-08-04T02:28:20.838Z,57.00
2018-08-04T02:30:50.682Z,55.68
2018-08-04T02:33:20.562Z,55.08
2018-08-04T02:35:50.907Z,53.60
2018-08-04T02:38:21.077Z,54.17
2018-08-04T02:40:50.784Z,53.91
2018-08-04T02:43:20.617Z,53.67
2018-08-04T02:45:50.362Z,53.73
2018-08-04T02:48:20.113Z,53.24
2018-08-04T02:50:49.924Z,53.89
2018-08-04T02:53:19.696Z,54.24
2018-08-04T02:55:49.472Z,54.16
2018-08-04T02:58:19.169Z,55.19
2018-08-04T03:00:48.902Z,53.12
2018-08-04T03:03:18.813Z,52.74
2018-08-04T03:05:48.414Z,52.47
2018-08-04T03:08:18.092Z,52.12
2018-08-04T03:10:47.937Z,52.09
2018-08-04T03:13:17.778Z,51.30
2018-08-04T03:15:47.583Z,51.44
2018-08-04T03:18:17.332Z,54.75
2018-08-04T03:20:47.155Z,53.47
2018-08-04T03:23:16.981Z,54.19
2018-08-04T03:25:46.869Z,54.02
2018-08-04T03:28:16.544Z,53.35
2018-08-04T03:30:46.294Z,52.92
2018-08-04T03:33:16.152Z,53.02
2018-08-04T03:35:46.479Z,56.30
2018-08-04T03:38:16.962Z,55.25
2018-08-04T03:40:47.679Z,57.87
2018-08-04T03:43:18.231Z,58.55
2018-08-04T03:45:49.399Z,57.56
2018-08-04T03:48:19.945Z,56.75
2018-08-04T03:50:50.055Z,55.21
2018-08-04T03:53:20.466Z,56.48
2018-08-04T03:55:51.222Z,59.56
2018-08-04T03:58:21.497Z,57.54
2018-08-04T04:00:52.051Z,57.66
2018-08-04T04:03:22.760Z,60.63
2018-08-04T04:05:53.545Z,59.85
2018-08-04T04:08:23.878Z,57.30
2018-08-04T04:10:54.173Z,58.34
2018-08-04T04:13:24.755Z,56.66
2018-08-04T04:15:55.972Z,56.17
2018-08-04T04:18:26.399Z,55.49
2018-08-04T04:20:57.153Z,54.37
2018-08-04T04:23:27.521Z,54.67
2018-08-04T04:25:58.292Z,54.44
2018-08-04T04:28:28.794Z,54.95
2018-08-04T04:30:59.330Z,54.90
2018-08-04T04:33:29.722Z,52.37
2018-08-04T04:36:00.477Z,55.12
2018-08-04T04:38:31.087Z,52.77
2018-08-04T04:41:01.778Z,53.63
2018-08-04T04:43:32.166Z,54.29
2018-08-04T04:46:06.130Z,53.58
2018-08-04T04:48:37.281Z,53.56
2018-08-04T04:51:08.037Z,54.86
2018-08-04T04:53:38.333Z,54.19
2018-08-04T04:56:09.204Z,53.11
2018-08-04T04:58:39.442Z,53.98
2018-08-04T05:01:09.869Z,53.09
2018-08-04T05:03:40.465Z,54.56
2018-08-04T05:06:11.789Z,55.46
2018-08-04T05:08:42.158Z,55.11
2018-08-04T05:11:12.455Z,55.48
2018-08-04T05:13:43.222Z,54.79
2018-08-04T05:16:14.166Z,54.44
2018-08-04T05:18:44.554Z,53.80
2018-08-04T05:21:14.931Z,53.04
2018-08-04T05:23:45.701Z,52.59
2018-08-04T05:26:16.686Z,52.74
2018-08-04T05:28:47.018Z,51.51
2018-08-04T05:31:17.232Z,50.72
2018-08-04T05:33:47.663Z,50.41
2018-08-04T05:36:18.393Z,50.64
2018-08-04T05:38:48.551Z,48.82
2018-08-04T05:41:18.777Z,51.61
2018-08-04T05:43:49.367Z,49.40
2018-08-04T05:46:24.232Z,48.61
2018-08-04T05:48:56.701Z,48.31
2018-08-04T05:51:27.350Z,47.75
2018-08-04T05:53:57.752Z,46.68
2018-08-04T05:56:29.278Z,45.97
2018-08-04T05:58:59.927Z,45.53
2018-08-04T06:01:29.770Z,45.82
2018-08-04T06:03:59.514Z,45.47
2018-08-04T06:06:30.138Z,44.01
2018-08-04T06:08:59.906Z,43.93
2018-08-04T06:11:29.610Z,43.96
2018-08-04T06:13:59.332Z,44.01
2018-08-04T06:16:28.950Z,42.92
2018-08-04T06:18:58.868Z,40.97
2018-08-04T06:21:28.641Z,40.47
2018-08-04T06:23:58.334Z,41.22
2018-08-04T06:26:28.126Z,39.25
2018-08-04T06:28:57.853Z,38.25
2018-08-04T06:31:27.697Z,38.38
2018-08-04T06:33:57.533Z,38.68
2018-08-04T06:36:27.457Z,37.93
2018-08-04T06:38:57.206Z,36.40
2018-08-04T06:41:27.702Z,36.18
2018-08-04T06:43:57.738Z,33.68
2018-08-04T06:46:28.054Z,33.98
2018-08-04T06:48:58.445Z,33.67
2018-08-04T06:51:28.841Z,34.19
2018-08-04T06:53:59.261Z,33.35
2018-08-04T06:56:30.488Z,32.72
2018-08-04T06:59:00.868Z,34.38
2018-08-04T07:01:31.126Z,34.58
2018-08-04T07:04:01.440Z,33.41
2018-08-04T07:06:33.347Z,34.35
2018-08-04T07:09:03.811Z,33.53
2018-08-04T07:11:34.224Z,34.36
2018-08-04T07:14:05.197Z,34.46
2018-08-04T07:16:36.949Z,35.66
2018-08-04T07:19:07.411Z,35.83
2018-08-04T07:21:37.584Z,35.12
2018-08-04T07:24:07.861Z,33.48
2018-08-04T07:26:39.285Z,32.52
2018-08-04T07:29:09.085Z,32.28
2018-08-04T07:31:38.850Z,31.69
2018-08-04T07:34:08.645Z,32.10
2018-08-04T07:36:38.989Z,31.52
2018-08-04T07:39:10.676Z,32.67
2018-08-04T07:41:41.445Z,33.22
2018-08-04T07:44:12.157Z,32.25
2018-08-04T07:46:45.886Z,32.26
2018-08-04T07:49:16.670Z,31.21
2018-08-04T07:51:47.389Z,29.05
2018-08-04T07:54:18.179Z,29.31
2018-08-04T07:56:49.509Z,28.48
2018-08-04T07:59:20.070Z,30.12
2018-08-04T08:01:50.485Z,29.89
2018-08-04T08:04:20.784Z,30.81
2018-08-04T08:06:51.800Z,29.45
2018-08-04T08:09:22.005Z,29.01
2018-08-04T08:11:52.547Z,27.71
2018-08-04T08:14:23.206Z,28.17
2018-08-04T08:16:53.993Z,28.02
2018-08-04T08:19:24.331Z,28.98
2018-08-04T08:21:54.350Z,28.65
2018-08-04T08:24:24.376Z,27.70
2018-08-04T08:26:55.528Z,26.40
2018-08-04T08:29:25.267Z,27.77
2018-08-04T08:31:55.140Z,27.89
2018-08-04T08:34:25.590Z,26.31
2018-08-04T08:36:56.713Z,25.03
2018-08-04T08:39:27.349Z,27.06
2018-08-04T08:41:58.040Z,25.16
2018-08-04T08:44:28.372Z,26.10
2018-08-04T08:46:59.213Z,24.61
2018-08-04T08:49:29.740Z,24.87
2018-08-04T08:52:00.143Z,25.20
2018-08-04T08:54:30.735Z,25.10
2018-08-04T08:57:01.657Z,23.81
2018-08-04T08:59:31.769Z,23.78
2018-08-04T09:02:01.731Z,23.40
2018-08-04T09:04:32.034Z,21.99
2018-08-04T09:07:03.600Z,23.26
2018-08-04T09:09:34.419Z,22.39
2018-08-04T09:12:05.217Z,20.57
2018-08-04T09:14:35.937Z,21.65
2018-08-04T09:17:06.723Z,23.54
2018-08-04T09:19:36.840Z,22.35
2018-08-04T09:22:07.174Z,18.82
2018-08-04T09:24:37.412Z,20.09
2018-08-04T09:27:08.989Z,21.69
2018-08-04T09:29:39.355Z,20.29
2018-08-04T09:32:09.495Z,21.62
2018-08-04T09:34:40.212Z,21.49
2018-08-04T09:37:11.487Z,21.08
2018-08-04T09:39:42.041Z,18.98
2018-08-04T09:42:12.063Z,20.35
2018-08-04T09:44:41.895Z,21.59
2018-08-04T09:47:12.470Z,22.12
2018-08-04T09:49:42.320Z,19.04
2018-08-04T09:52:12.152Z,17.57
2018-08-04T09:54:41.922Z,19.89
2018-08-04T09:57:11.651Z,16.86
2018-08-04T09:59:41.505Z,18.08
2018-08-04T10:02:12.042Z,17.85
2018-08-04T10:04:42.194Z,17.46
2018-08-04T10:07:13.290Z,18.15
2018-08-04T10:09:43.118Z,17.12
2018-08-04T10:12:12.870Z,15.96
2018-08-04T10:14:42.730Z,18.21
2018-08-04T10:17:12.628Z,20.99
2018-08-04T10:19:43.024Z,19.52
2018-08-04T10:22:13.554Z,21.40
2018-08-04T10:24:43.423Z,19.75
2018-08-04T10:27:13.725Z,20.58
2018-08-04T10:29:43.745Z,19.78
2018-08-04T10:32:13.695Z,20.17
2018-08-04T10:34:43.330Z,19.00
2018-08-04T10:37:12.904Z,18.06
2018-08-04T10:39:42.579Z,17.80
2018-08-04T10:42:12.326Z,18.42
2018-08-04T10:44:42.385Z,17.85
2018-08-04T10:47:12.247Z,17.19
2018-08-04T10:49:42.216Z,16.53
2018-08-04T10:52:11.983Z,18.25
2018-08-04T10:54:41.828Z,18.79
2018-08-04T10:57:11.603Z,17.91
2018-08-04T10:59:41.350Z,18.15
2018-08-04T11:02:11.119Z,17.24
2018-08-04T11:04:40.781Z,15.89
2018-08-04T11:07:10.505Z,16.03
2018-08-04T11:09:40.354Z,16.78
2018-08-04T11:12:10.311Z,16.02
2018-08-04T11:14:40.234Z,16.52
2018-08-04T11:17:10.061Z,17.79
2018-08-04T11:19:39.985Z,18.67
2018-08-04T11:22:09.736Z,20.03
2018-08-04T11:24:39.798Z,19.98
2018-08-04T11:27:10.327Z,20.01
2018-08-04T11:29:40.911Z,18.23
2018-08-04T11:32:11.244Z,16.24
2018-08-04T11:34:41.574Z,15.64
2018-08-04T11:37:13.155Z,14.60
2018-08-04T11:39:43.278Z,15.70
2018-08-04T11:42:13.746Z,17.57
2018-08-04T11:44:44.245Z,16.01
2018-08-04T11:47:14.960Z,15.15
2018-08-04T11:49:45.309Z,14.19
2018-08-04T11:52:15.825Z,15.03
2018-08-04T11:54:46.304Z,15.13
2018-08-04T11:57:16.630Z,14.47
2018-08-04T11:59:47.165Z,14.09
2018-08-04T12:02:17.887Z,15.88
2018-08-04T12:04:48.278Z,16.32
2018-08-04T12:07:19.890Z,15.75
2018-08-04T12:09:50.128Z,16.04
2018-08-04T12:12:20.743Z,14.97
2018-08-04T12:14:51.090Z,14.79
2018-08-04T12:17:22.105Z,15.03
2018-08-04T12:19:52.618Z,14.19
2018-08-04T12:22:23.254Z,14.56
2018-08-04T12:24:53.596Z,14.95
2018-08-04T12:27:24.471Z,16.13
2018-08-04T12:29:55.181Z,14.88
2018-08-04T12:32:25.197Z,17.45
2018-08-04T12:34:55.671Z,18.37
2018-08-04T12:37:26.428Z,19.74
2018-08-04T12:39:56.729Z,18.76
2018-08-04T12:42:27.564Z,18.88
2018-08-04T12:44:58.352Z,19.17
2018-08-04T12:47:29.175Z,17.45
2018-08-04T12:50:00.146Z,17.66
2018-08-04T12:52:30.699Z,16.20
2018-08-04T12:55:00.976Z,19.21
2018-08-04T12:57:31.649Z,17.55
2018-08-04T13:00:02.422Z,19.17
2018-08-04T13:02:33.058Z,18.45
2018-08-04T13:05:03.225Z,20.11
2018-08-04T13:07:34.012Z,19.11
2018-08-04T13:10:04.577Z,19.47
2018-08-04T13:12:35.070Z,17.19
2018-08-04T13:15:05.823Z,17.03
2018-08-04T13:17:37.014Z,18.45
2018-08-04T13:20:07.318Z,20.10
2018-08-04T13:22:37.802Z,19.03
2018-08-04T13:25:08.230Z,17.51
2018-08-04T13:27:39.667Z,17.94
2018-08-04T13:30:10.174Z,18.00
2018-08-04T13:32:40.728Z,18.71
2018-08-04T13:35:11.133Z,19.76
2018-08-04T13:37:41.629Z,18.95
2018-08-04T13:40:12.053Z,18.79
2018-08-04T13:42:42.446Z,19.76
2018-08-04T13:45:13.284Z,18.74
2018-08-04T13:47:44.093Z,19.57
2018-08-04T13:50:14.641Z,17.49
2018-08-04T13:52:45.109Z,18.97
2018-08-04T13:55:15.744Z,19.13
2018-08-04T13:57:46.860Z,18.63
2018-08-04T14:00:17.317Z,19.85
2018-08-04T14:02:47.671Z,20.59
2018-08-04T14:05:18.374Z,20.96
2018-08-04T14:07:49.332Z,20.49
2018-08-04T14:10:19.872Z,20.67
2018-08-04T14:12:50.330Z,21.54
2018-08-04T14:15:20.496Z,21.97
2018-08-04T14:17:51.858Z,23.08
2018-08-04T14:20:22.067Z,22.06
2018-08-04T14:22:52.582Z,20.13
2018-08-04T14:25:22.988Z,20.98
2018-08-04T14:27:53.704Z,19.64
2018-08-04T14:30:24.102Z,19.55
2018-08-04T14:32:54.333Z,18.54
2018-08-04T14:35:24.991Z,19.22
2018-08-04T14:37:56.051Z,19.18
2018-08-04T14:40:26.111Z,19.48
2018-08-04T14:42:56.533Z,18.94
2018-08-04T14:45:27.357Z,18.75
2018-08-04T14:47:58.794Z,19.01
2018-08-04T14:50:29.309Z,19.53
2018-08-04T14:52:59.367Z,19.16
2018-08-04T14:55:29.890Z,19.15
2018-08-04T14:58:01.182Z,20.21
2018-08-04T15:00:31.575Z,19.67
2018-08-04T15:03:01.666Z,20.94
2018-08-04T15:05:32.200Z,20.78
2018-08-04T15:08:03.038Z,20.69
2018-08-04T15:10:33.432Z,21.42
2018-08-04T15:13:05.037Z,21.38
2018-08-04T15:15:35.400Z,20.68
2018-08-04T15:18:06.661Z,22.51
2018-08-04T15:20:37.080Z,21.97
2018-08-04T15:23:07.410Z,22.76
2018-08-04T15:25:38.170Z,21.70
2018-08-04T15:28:09.505Z,21.77
2018-08-04T15:30:39.853Z,22.73
2018-08-04T15:33:10.555Z,22.84
2018-08-04T15:35:41.106Z,24.43
2018-08-04T15:38:13.103Z,24.62
2018-08-04T15:40:43.670Z,23.79
2018-08-04T15:43:14.236Z,24.59
2018-08-04T15:45:44.987Z,23.55
2018-08-04T15:48:16.553Z,25.01
2018-08-04T15:50:47.065Z,24.61
2018-08-04T15:53:17.234Z,24.64
2018-08-04T15:55:47.673Z,26.01
2018-08-04T15:58:18.081Z,25.64
2018-08-04T16:00:48.614Z,26.04
2018-08-04T16:03:19.237Z,25.90
2018-08-04T16:05:49.958Z,25.45
2018-08-04T16:08:20.699Z,25.63
2018-08-04T16:10:50.986Z,26.06
2018-08-04T16:13:21.245Z,26.09
2018-08-04T16:15:51.700Z,26.59
2018-08-04T16:18:23.170Z,26.15
2018-08-04T16:20:53.825Z,26.88
2018-08-04T16:23:24.303Z,26.72
2018-08-04T16:25:54.843Z,26.67
2018-08-04T16:28:26.191Z,28.41
2018-08-04T16:30:56.524Z,27.25
2018-08-04T16:33:26.547Z,27.68
2018-08-04T16:35:56.965Z,28.03
2018-08-04T16:38:27.871Z,27.28
2018-08-04T16:40:58.449Z,27.67
2018-08-04T16:43:29.023Z,28.18
2018-08-04T16:45:59.752Z,28.42
2018-08-04T16:48:31.137Z,28.62
2018-08-04T16:51:01.661Z,27.56
2018-08-04T16:53:32.394Z,27.70
2018-08-04T16:56:02.686Z,29.19
2018-08-04T16:58:33.971Z,29.70
2018-08-04T17:01:04.319Z,31.06
2018-08-04T17:03:35.091Z,31.68
2018-08-04T17:06:06.199Z,32.26
2018-08-04T17:08:36.892Z,31.77
2018-08-04T17:11:07.575Z,32.02
2018-08-04T17:13:38.174Z,33.78
2018-08-04T17:16:08.691Z,34.78
2018-08-04T17:18:39.796Z,34.13
2018-08-04T17:21:10.393Z,34.43
2018-08-04T17:23:40.871Z,34.83
2018-08-04T17:26:11.286Z,34.78
2018-08-04T17:28:42.508Z,35.68
2018-08-04T17:31:12.949Z,36.65
2018-08-04T17:33:43.641Z,36.33
2018-08-04T17:36:13.846Z,37.03
2018-08-04T17:38:45.091Z,36.86
2018-08-04T17:41:15.685Z,36.91
2018-08-04T17:43:46.452Z,36.13
2018-08-04T17:46:17.314Z,36.70
2018-08-04T17:48:48.481Z,36.79
2018-08-04T17:51:19.213Z,36.28
2018-08-04T17:53:49.482Z,36.50
2018-08-04T17:56:20.009Z,36.92
2018-08-04T17:58:52.177Z,36.46
2018-08-04T18:01:22.622Z,36.50
2018-08-04T18:03:53.081Z,37.01
2018-08-04T18:06:23.361Z,37.27
2018-08-04T18:08:54.506Z,38.09
2018-08-04T18:11:24.950Z,37.57
2018-08-04T18:13:55.422Z,37.74
2018-08-04T18:16:25.905Z,38.58
2018-08-04T18:18:57.409Z,39.82
2018-08-04T18:21:27.633Z,39.28
2018-08-04T18:23:58.545Z,38.92
2018-08-04T18:26:28.995Z,37.85
2018-08-04T18:29:00.184Z,39.01
2018-08-04T18:31:30.657Z,39.07
2018-08-04T18:34:01.275Z,39.62
2018-08-04T18:36:31.635Z,39.68
2018-08-04T18:39:02.431Z,40.38
2018-08-04T18:41:32.905Z,40.26
2018-08-04T18:44:03.166Z,39.94
2018-08-04T18:46:34.154Z,38.66
2018-08-04T18:49:04.855Z,37.98
2018-08-04T18:51:35.334Z,37.38
2018-08-04T18:54:05.320Z,38.93
2018-08-04T18:56:35.582Z,38.38
2018-08-04T18:59:06.072Z,37.92
2018-08-04T19:01:36.401Z,38.23
2018-08-04T19:04:06.812Z,38.07
2018-08-04T19:06:37.152Z,38.53
2018-08-04T19:09:10.779Z,39.49
2018-08-04T19:11:40.976Z,39.47
2018-08-04T19:14:12.190Z,39.94
2018-08-04T19:16:42.997Z,40.18
2018-08-04T19:19:13.796Z,39.70
2018-08-04T19:21:44.378Z,39.58
2018-08-04T19:24:15.052Z,37.93
2018-08-04T19:26:45.434Z,37.83
2018-08-04T19:29:16.102Z,38.22
2018-08-04T19:31:46.510Z,39.20
2018-08-04T19:34:17.052Z,38.72
2018-08-04T19:36:47.418Z,41.64
2018-08-04T19:39:17.392Z,41.89
2018-08-04T19:41:47.190Z,42.26
2018-08-04T19:44:17.155Z,41.83
2018-08-04T19:46:47.703Z,41.76
2018-08-04T19:49:18.251Z,40.71
2018-08-04T19:51:48.915Z,40.28
2018-08-04T19:54:19.212Z,39.95
2018-08-04T19:56:49.597Z,39.11
2018-08-04T19:59:20.985Z,40.33
2018-08-04T20:01:51.421Z,40.40
2018-08-04T20:04:21.758Z,40.68
2018-08-04T20:06:51.780Z,40.59
2018-08-04T20:09:23.331Z,40.71
2018-08-04T20:11:53.740Z,39.92
2018-08-04T20:14:23.971Z,40.19
2018-08-04T20:16:54.488Z,39.57
2018-08-04T20:19:25.543Z,40.08
2018-08-04T20:21:56.250Z,40.93
2018-08-04T20:24:26.880Z,41.46
2018-08-04T20:26:57.364Z,41.19
2018-08-04T20:29:28.197Z,40.91
2018-08-04T20:31:58.460Z,41.22
2018-08-04T20:34:28.883Z,41.05
2018-08-04T20:36:59.233Z,41.60
2018-08-04T20:39:30.103Z,41.81
2018-08-04T20:42:00.513Z,43.12
2018-08-04T20:44:31.092Z,41.99
2018-08-04T20:47:01.750Z,41.73
2018-08-04T20:49:32.986Z,41.45
2018-08-04T20:52:03.230Z,41.78
2018-08-04T20:54:33.465Z,42.47
2018-08-04T20:57:03.579Z,43.93
2018-08-04T20:59:35.726Z,46.11
2018-08-04T21:02:06.573Z,44.39
2018-08-04T21:04:37.562Z,44.72
2018-08-04T21:07:08.048Z,44.39
2018-08-04T21:09:39.446Z,44.25
2018-08-04T21:12:09.868Z,45.50
2018-08-04T21:14:40.300Z,44.72
2018-08-04T21:17:10.634Z,42.70
2018-08-04T21:19:41.978Z,41.58
2018-08-04T21:22:12.346Z,43.51
2018-08-04T21:24:42.785Z,44.38
2018-08-04T21:27:13.093Z,43.95
2018-08-04T21:29:44.124Z,43.20
2018-08-04T21:32:14.407Z,43.56
2018-08-04T21:34:44.629Z,43.31
2018-08-04T21:37:15.114Z,42.81
2018-08-04T21:39:46.537Z,43.04
2018-08-04T21:42:17.175Z,44.53
2018-08-04T21:44:47.805Z,46.10
2018-08-04T21:47:18.756Z,46.96
2018-08-04T21:49:50.357Z,47.39
2018-08-04T21:52:21.064Z,47.02
2018-08-04T21:54:51.719Z,47.68
2018-08-04T21:57:22.342Z,47.79
2018-08-04T21:59:53.160Z,47.66
2018-08-04T22:02:23.826Z,47.22
2018-08-04T22:04:54.311Z,47.36
2018-08-04T22:07:45.473Z,46.66
2018-08-04T22:10:19.874Z,46.54
2018-08-04T22:12:49.963Z,46.44
2018-08-04T22:15:20.170Z,47.39
2018-08-04T22:17:50.965Z,46.84
2018-08-04T22:20:22.637Z,46.99
2018-08-04T22:22:53.589Z,47.26
2018-08-04T22:25:27.826Z,46.68
2018-08-04T22:27:58.849Z,46.48
2018-08-04T22:30:30.226Z,45.40
2018-08-04T22:33:00.599Z,46.36
2018-08-04T22:35:31.123Z,46.78
2018-08-04T22:38:02.059Z,47.51
2018-08-04T22:40:33.282Z,47.75
2018-08-04T22:43:04.298Z,47.67
2018-08-04T22:46:14.008Z,46.57
2018-08-04T22:48:46.334Z,46.54
2018-08-04T22:51:20.888Z,46.21
2018-08-04T22:53:50.651Z,44.61
2018-08-04T22:56:20.531Z,44.90
2018-08-04T22:58:51.872Z,43.95
2018-08-04T23:01:22.250Z,43.59
2018-08-04T23:03:52.110Z,44.07
2018-08-04T23:06:22.699Z,44.43
2018-08-04T23:08:53.955Z,48.27
2018-08-04T23:11:24.489Z,49.89
2018-08-04T23:13:55.112Z,50.50
2018-08-04T23:16:25.656Z,50.45
2018-08-04T23:18:56.959Z,47.50
2018-08-04T23:21:27.850Z,48.26
2018-08-04T23:23:58.583Z,47.63
2018-08-04T23:26:29.317Z,48.64
2018-08-04T23:29:01.276Z,47.83
2018-08-04T23:31:31.640Z,48.23
2018-08-04T23:34:02.083Z,47.64
2018-08-04T23:36:32.431Z,48.39
2018-08-04T23:39:03.255Z,46.97
2018-08-04T23:41:33.470Z,47.30
2018-08-04T23:44:03.812Z,46.76
2018-08-04T23:46:34.170Z,46.91
2018-08-04T23:49:05.538Z,45.67
2018-08-04T23:51:36.397Z,46.12
2018-08-04T23:54:06.992Z,46.99
2018-08-04T23:56:37.499Z,46.74
2018-08-04T23:59:08.234Z,46.78
